Terminal Aerodrome Forecast
Issued by NWS Springfield, MO

Home | Current Version | Previous Version | Text Only | Print | Product List | Glossary On
Versions: 1 2 3 4 5 6 7 8 9 10 11 12 13 14 15 16 17 18 19 20 21 22
000
FTUS43 KSGF 260520
TAFSGF
TAF
KSGF 260520Z 2606/2706 15013KT P6SM SCT200 WS020/20040KT
     FM261200 17012KT P6SM SCT050 SCT150
     FM261700 21012G20KT P6SM BKN050
     FM270000 VRB04KT P6SM BKN030=

USA.gov is the U.S. government's official web portal to all federal, state and local government web resources and services.